Time;durP1;ratioP1;P1;durP2;ratioP2;P2;SDS_P1;SDS_P2;PMS_P1;PMS_P2;Temp;Humidity;BMP_temperature;BMP_pressure;BME280_temperature;BME280_humidity;BME280_pressure;Samples;Min_cycle;Max_cycle;Signal;HPM_P1;HPM_P2
2021/06/04 00:02:18;;;;;;;13.20;10.00;;;18.90;99.90;;;;;;5053391;28;20490;-64
2021/06/04 00:04:43;;;;;;;14.27;9.90;;;19.00;99.90;;;;;;5070574;28;20471;-54
2021/06/04 00:07:09;;;;;;;13.43;10.30;;;18.90;99.90;;;;;;5053135;28;20388;-54
2021/06/04 00:09:35;;;;;;;15.70;10.90;;;18.90;99.90;;;;;;5069282;28;20884;-55
2021/06/04 00:12:01;;;;;;;14.43;9.73;;;18.90;99.90;;;;;;5052583;28;20388;-55
2021/06/04 00:14:40;;;;;;;13.45;10.20;;;18.80;99.90;;;;;;5070296;28;20379;-54
2021/06/04 00:17:13;;;;;;;13.65;9.98;;;18.80;99.90;;;;;;5052519;28;20785;-54
2021/06/04 00:19:39;;;;;;;12.93;10.02;;;18.80;99.90;;;;;;5052528;28;20392;-54
2021/06/04 00:22:29;;;;;;;13.13;9.30;;;18.80;99.90;;;;;;5070745;28;20388;-54
2021/06/04 00:24:57;;;;;;;14.50;10.07;;;21.10;99.90;;;;;;5051940;28;20426;-54
2021/06/04 00:27:23;;;;;;;12.25;9.50;;;18.70;99.90;;;;;;5052133;28;20392;-70
2021/06/04 00:29:49;;;;;;;12.73;9.57;;;18.70;99.90;;;;;;5055236;28;20406;-54
2021/06/04 00:32:18;;;;;;;15.45;9.90;;;18.70;99.90;;;;;;5079654;28;20423;-54
2021/06/04 00:34:44;;;;;;;13.63;10.23;;;18.70;99.90;;;;;;5060871;28;20404;-59
2021/06/04 00:37:10;;;;;;;13.07;10.43;;;18.70;99.90;;;;;;5090741;28;20760;-54
2021/06/04 00:39:40;;;;;;;13.52;10.55;;;18.70;99.90;;;;;;5071871;28;20378;-55
2021/06/04 00:42:21;;;;;;;15.32;10.40;;;18.70;99.90;;;;;;5077260;28;20376;-54
2021/06/04 00:44:49;;;;;;;16.17;10.65;;;18.70;99.90;;;;;;5052074;28;20400;-54
2021/06/04 00:47:14;;;;;;;14.27;10.48;;;18.60;99.90;;;;;;5052403;28;20418;-54
2021/06/04 00:49:40;;;;;;;16.67;11.27;;;18.50;99.90;;;;;;5051497;28;21289;-55
2021/06/04 00:52:09;;;;;;;13.32;10.60;;;18.30;99.90;;;;;;5069531;28;20407;-54
2021/06/04 00:54:34;;;;;;;15.25;11.05;;;18.20;99.90;;;;;;5073841;28;20392;-57
2021/06/04 00:57:02;;;;;;;17.35;12.52;;;18.20;99.90;;;;;;5055143;28;22936;-54
2021/06/04 00:59:31;;;;;;;17.00;12.20;;;18.10;99.90;;;;;;5089596;28;20374;-55
2021/06/04 01:01:58;;;;;;;16.27;12.25;;;18.10;99.90;;;;;;5075343;28;20391;-63
2021/06/04 01:04:27;;;;;;;13.60;11.30;;;18.10;99.90;;;;;;5069655;28;20383;-67
2021/06/04 01:07:21;;;;;;;16.10;12.05;;;18.00;99.90;;;;;;5073088;28;20471;-54
2021/06/04 01:10:31;;;;;;;14.82;11.68;;;17.90;99.90;;;;;;5089881;28;20403;-54
2021/06/04 01:13:12;;;;;;;16.08;11.80;;;17.90;99.90;;;;;;5090050;28;20389;-54
2021/06/04 01:15:48;;;;;;;15.10;11.38;;;17.90;99.90;;;;;;5071157;28;20508;-57
2021/06/04 01:18:46;;;;;;;16.38;11.38;;;18.00;99.90;;;;;;5090048;28;20386;-55
2021/06/04 01:21:36;;;;;;;14.23;11.20;;;18.00;99.90;;;;;;5071745;28;20967;-54
2021/06/04 01:24:16;;;;;;;15.90;12.30;;;18.00;99.90;;;;;;5070145;28;20468;-54
2021/06/04 01:26:55;;;;;;;15.90;12.30;;;18.00;99.90;;;;;;5050933;28;20857;-55
2021/06/04 01:29:30;;;;;;;16.00;12.25;;;18.00;99.90;;;;;;5069332;28;20387;-69
2021/06/04 01:32:03;;;;;;;15.50;11.10;;;18.00;99.90;;;;;;5051955;28;20769;-56
2021/06/04 01:34:36;;;;;;;15.40;11.70;;;18.10;99.90;;;;;;5069219;28;20877;-55
2021/06/04 01:37:21;;;;;;;15.75;11.20;;;18.10;99.90;;;;;;5069284;28;20468;-55
2021/06/04 01:39:52;;;;;;;16.63;10.88;;;18.10;99.90;;;;;;5069134;28;20474;-55
2021/06/04 01:42:26;;;;;;;16.42;11.30;;;18.10;99.90;;;;;;5069987;28;20449;-55
2021/06/04 01:45:10;;;;;;;13.30;10.65;;;18.20;99.90;;;;;;5069901;28;20962;-54
2021/06/04 01:47:43;;;;;;;13.48;10.25;;;18.20;99.90;;;;;;5068399;28;20458;-55
2021/06/04 01:50:15;;;;;;;14.93;10.10;;;18.20;99.90;;;;;;5069481;28;20368;-55
2021/06/04 01:52:43;;;;;;;13.20;10.05;;;18.00;99.90;;;;;;5069116;28;20927;-54
2021/06/04 01:55:17;;;;;;;14.13;11.02;;;18.00;99.90;;;;;;5051346;28;20869;-55
2021/06/04 01:57:50;;;;;;;14.73;11.10;;;18.00;99.90;;;;;;5068611;28;20464;-55
2021/06/04 02:00:25;;;;;;;14.02;10.63;;;18.00;99.90;;;;;;5069189;28;20388;-57
2021/06/04 02:02:51;;;;;;;14.75;10.80;;;17.90;99.90;;;;;;5069505;28;20468;-56
2021/06/04 02:05:22;;;;;;;13.07;9.95;;;17.80;99.90;;;;;;5051143;28;20387;-55
2021/06/04 02:07:48;;;;;;;13.40;10.23;;;17.90;99.90;;;;;;5051150;28;20419;-55
2021/06/04 02:10:38;;;;;;;13.35;9.55;;;17.90;99.90;;;;;;5069105;28;20384;-55
2021/06/04 02:13:09;;;;;;;13.10;10.40;;;17.90;99.90;;;;;;5051370;28;20384;-64
2021/06/04 02:15:40;;;;;;;14.88;11.20;;;17.70;99.90;;;;;;5068563;28;20899;-55
2021/06/04 02:18:27;;;;;;;15.17;11.87;;;17.50;99.90;;;;;;5051040;28;20749;-55
2021/06/04 02:21:16;;;;;;;18.15;12.00;;;17.50;99.90;;;;;;5069154;28;20453;-55
2021/06/04 02:23:53;;;;;;;14.27;11.23;;;17.60;99.90;;;;;;5050335;28;20433;-54
2021/06/04 02:26:28;;;;;;;15.73;12.05;;;17.50;99.90;;;;;;5069265;28;20395;-54
2021/06/04 02:29:16;;;;;;;14.70;11.00;;;17.60;99.90;;;;;;5050802;28;20429;-54
2021/06/04 02:32:10;;;;;;;15.10;11.55;;;17.70;99.90;;;;;;5049395;28;20411;-55
2021/06/04 02:34:50;;;;;;;14.25;11.40;;;17.60;99.90;;;;;;5054132;28;20384;-54
2021/06/04 02:37:22;;;;;;;15.50;11.13;;;17.70;99.90;;;;;;5054710;28;20427;-54
2021/06/04 02:40:03;;;;;;;15.63;11.70;;;17.80;99.90;;;;;;5071893;28;20390;-54
2021/06/04 02:42:42;;;;;;;15.50;11.10;;;17.70;99.90;;;;;;5072101;28;20372;-55
2021/06/04 02:45:49;;;;;;;14.30;10.60;;;17.70;99.90;;;;;;5054620;28;20441;-54
2021/06/04 02:48:19;;;;;;;14.27;10.82;;;17.70;99.90;;;;;;4971275;28;20508;-54
2021/06/04 02:50:47;;;;;;;15.10;11.02;;;17.70;99.90;;;;;;5057444;28;20404;-55
2021/06/04 02:53:16;;;;;;;13.87;10.20;;;17.70;99.90;;;;;;5054457;28;20409;-55
2021/06/04 02:56:00;;;;;;;15.60;10.70;;;17.70;99.90;;;;;;5071107;28;20419;-54
2021/06/04 02:58:26;;;;;;;14.50;10.82;;;17.70;99.90;;;;;;5071276;28;20380;-69
2021/06/04 03:00:51;;;;;;;14.80;10.67;;;17.70;99.90;;;;;;5072402;28;20391;-55
2021/06/04 03:03:17;;;;;;;15.47;10.97;;;17.60;99.90;;;;;;5054331;28;20384;-55
2021/06/04 03:05:43;;;;;;;14.00;10.75;;;17.50;99.90;;;;;;5053072;28;20460;-54
2021/06/04 03:08:09;;;;;;;15.87;11.20;;;17.40;99.90;;;;;;5072139;28;20379;-55
2021/06/04 03:10:44;;;;;;;12.60;10.38;;;17.30;99.90;;;;;;5071246;28;20376;-58
2021/06/04 03:13:25;;;;;;;13.65;11.07;;;17.30;99.90;;;;;;5054193;28;20452;-54
2021/06/04 03:15:56;;;;;;;17.07;10.93;;;17.30;99.90;;;;;;5053855;28;20477;-54
2021/06/04 03:18:26;;;;;;;14.45;11.25;;;17.40;99.90;;;;;;5071907;28;20372;-54
2021/06/04 03:20:52;;;;;;;16.80;11.07;;;17.40;99.90;;;;;;5072030;28;20486;-55
2021/06/04 03:23:22;;;;;;;13.40;10.48;;;17.50;99.90;;;;;;5071984;28;20395;-54
2021/06/04 03:25:52;;;;;;;19.10;10.65;;;17.50;99.90;;;;;;5053016;28;20513;-54
2021/06/04 03:28:21;;;;;;;15.00;10.90;;;17.40;99.90;;;;;;5053914;28;20398;-54
2021/06/04 03:30:49;;;;;;;13.10;10.10;;;17.40;99.90;;;;;;5070847;28;20560;-62
2021/06/04 03:33:18;;;;;;;13.57;10.20;;;17.40;99.90;;;;;;5071424;28;20383;-54
2021/06/04 03:35:45;;;;;;;16.50;11.13;;;17.40;99.90;;;;;;5070526;28;20408;-54
2021/06/04 03:38:13;;;;;;;16.25;10.18;;;17.40;99.90;;;;;;5071741;28;20853;-57
2021/06/04 03:40:39;;;;;;;14.55;10.73;;;17.30;99.90;;;;;;5070670;28;20388;-52
2021/06/04 03:43:09;;;;;;;13.95;10.20;;;17.30;99.90;;;;;;5071484;28;20733;-53
2021/06/04 03:45:40;;;;;;;13.98;10.50;;;17.40;99.90;;;;;;5051600;28;20427;-54
2021/06/04 03:48:08;;;;;;;15.35;11.02;;;17.30;99.90;;;;;;5071206;28;20380;-52
2021/06/04 03:50:35;;;;;;;14.40;10.82;;;17.40;99.90;;;;;;5070578;28;20524;-53
2021/06/04 03:53:02;;;;;;;14.27;9.90;;;17.50;99.90;;;;;;5053463;28;20397;-53
2021/06/04 03:55:28;;;;;;;14.38;10.55;;;17.50;99.90;;;;;;5070408;28;20410;-68
2021/06/04 03:57:54;;;;;;;14.90;10.60;;;17.50;99.90;;;;;;5071202;28;20375;-53
2021/06/04 04:00:34;;;;;;;13.03;9.73;;;17.50;99.90;;;;;;5052864;28;20380;-53
2021/06/04 04:03:00;;;;;;;13.52;10.00;;;17.50;99.90;;;;;;5053415;28;20407;-54
2021/06/04 04:05:26;;;;;;;14.43;9.95;;;17.60;99.90;;;;;;5090662;28;20392;-69
2021/06/04 04:07:53;;;;;;;13.82;10.00;;;17.70;99.90;;;;;;5076139;28;20398;-52
2021/06/04 04:10:22;;;;;;;16.90;10.85;;;17.80;99.90;;;;;;5057189;28;20398;-57
2021/06/04 04:12:49;;;;;;;13.25;10.18;;;18.00;99.90;;;;;;5061672;28;20394;-54
2021/06/04 04:15:17;;;;;;;14.82;10.25;;;18.10;99.90;;;;;;5071194;28;20387;-55
2021/06/04 04:17:48;;;;;;;12.77;10.00;;;18.20;99.90;;;;;;5079336;28;20451;-55
2021/06/04 04:20:17;;;;;;;12.82;9.10;;;18.20;99.90;;;;;;5080070;28;20395;-55
2021/06/04 04:22:43;;;;;;;13.27;9.68;;;18.30;99.90;;;;;;5061974;28;20795;-55
2021/06/04 04:25:12;;;;;;;13.95;9.80;;;18.40;99.90;;;;;;5079626;28;20407;-55
2021/06/04 04:27:38;;;;;;;16.75;9.73;;;18.60;99.90;;;;;;5071564;28;20426;-55
2021/06/04 04:30:07;;;;;;;12.63;9.13;;;18.60;99.90;;;;;;5082607;28;20389;-58
2021/06/04 04:32:33;;;;;;;13.27;9.18;;;18.60;99.90;;;;;;5071997;28;20382;-55
2021/06/04 04:34:58;;;;;;;12.50;9.67;;;18.60;99.90;;;;;;5074349;28;20858;-56
2021/06/04 04:37:24;;;;;;;15.20;10.10;;;18.70;99.90;;;;;;5070306;28;20423;-67
2021/06/04 04:39:50;;;;;;;13.43;9.73;;;18.60;99.90;;;;;;5071400;28;20399;-55
2021/06/04 04:42:19;;;;;;;14.43;9.90;;;18.60;99.90;;;;;;5082226;28;20382;-55
2021/06/04 04:44:46;;;;;;;12.05;9.60;;;18.60;99.90;;;;;;5071054;28;20383;-54
2021/06/04 04:47:14;;;;;;;12.75;9.00;;;18.60;99.90;;;;;;5069651;28;20858;-55
2021/06/04 04:49:40;;;;;;;14.05;9.60;;;18.60;99.90;;;;;;5069039;28;20864;-58
2021/06/04 04:52:13;;;;;;;11.45;8.55;;;18.70;99.90;;;;;;5051954;28;21003;-55
2021/06/04 04:54:46;;;;;;;12.07;8.97;;;18.80;99.90;;;;;;5069355;28;20388;-55
2021/06/04 04:57:13;;;;;;;14.18;8.60;;;18.80;99.90;;;;;;5069574;28;20754;-56
2021/06/04 04:59:39;;;;;;;10.90;8.75;;;18.90;99.90;;;;;;5069317;28;20380;-55
2021/06/04 05:02:06;;;;;;;11.48;8.60;;;18.90;99.90;;;;;;5052170;28;20399;-56
2021/06/04 05:04:32;;;;;;;13.68;9.02;;;18.90;99.90;;;;;;5069020;28;20436;-56
2021/06/04 05:06:58;;;;;;;12.20;8.50;;;19.00;99.90;;;;;;5070013;28;20470;-55
2021/06/04 05:09:24;;;;;;;12.43;8.90;;;19.20;99.90;;;;;;5069719;28;20383;-63
2021/06/04 05:11:49;;;;;;;12.77;8.70;;;19.20;99.90;;;;;;5051339;28;20463;-56
2021/06/04 05:14:16;;;;;;;10.60;7.40;;;19.00;99.90;;;;;;5072456;28;20782;-62
2021/06/04 05:16:42;;;;;;;11.07;8.20;;;18.90;99.90;;;;;;5059229;28;20424;-55
2021/06/04 05:19:08;;;;;;;10.60;7.90;;;19.10;99.90;;;;;;5057810;28;20405;-63
2021/06/04 05:21:34;;;;;;;12.38;8.20;;;19.30;99.90;;;;;;5055305;28;20409;-56
2021/06/04 05:24:02;;;;;;;12.75;8.10;;;19.30;99.90;;;;;;5058678;28;20394;-56
2021/06/04 05:26:28;;;;;;;12.52;8.80;;;19.40;99.90;;;;;;5072725;28;20415;-68
2021/06/04 05:28:53;;;;;;;12.07;8.88;;;19.40;99.90;;;;;;5073074;28;20901;-55
2021/06/04 05:31:19;;;;;;;11.18;7.95;;;19.30;99.90;;;;;;5068387;28;20395;-55
2021/06/04 05:33:47;;;;;;;12.23;8.50;;;19.50;99.90;;;;;;5077137;28;20467;-56
2021/06/04 05:36:19;;;;;;;10.52;8.07;;;19.50;99.90;;;;;;5074761;28;20819;-55
2021/06/04 05:38:47;;;;;;;13.60;8.90;;;19.50;99.90;;;;;;5076683;28;20491;-57
2021/06/04 05:41:13;;;;;;;10.48;8.30;;;19.50;99.90;;;;;;5073920;28;20873;-56
2021/06/04 05:43:42;;;;;;;10.85;8.05;;;19.60;99.90;;;;;;5062091;28;20395;-55
2021/06/04 05:46:10;;;;;;;13.32;7.90;;;19.70;99.90;;;;;;5061821;28;20467;-57
2021/06/04 05:48:36;;;;;;;11.70;7.82;;;19.70;99.90;;;;;;5070830;28;20403;-56
2021/06/04 05:51:07;;;;;;;11.52;7.68;;;19.90;99.90;;;;;;5075264;28;21315;-56
2021/06/04 05:53:36;;;;;;;11.05;7.88;;;20.00;99.90;;;;;;5069020;28;20449;-59
2021/06/04 05:56:04;;;;;;;11.00;8.40;;;20.20;99.90;;;;;;5076527;28;20991;-59
2021/06/04 05:58:30;;;;;;;12.80;9.13;;;20.30;99.90;;;;;;5076711;28;20762;-55
2021/06/04 06:00:59;;;;;;;12.80;8.60;;;20.30;99.90;;;;;;5075132;28;20453;-56
2021/06/04 06:03:30;;;;;;;15.35;9.77;;;20.40;99.90;;;;;;5070263;28;20388;-69
2021/06/04 06:06:01;;;;;;;10.85;8.02;;;20.70;99.90;;;;;;5072988;28;20395;-56
2021/06/04 06:08:28;;;;;;;10.77;7.38;;;20.90;99.90;;;;;;5074224;28;20481;-70
2021/06/04 06:10:55;;;;;;;13.80;8.00;;;21.20;99.90;;;;;;5064495;28;20478;-56
2021/06/04 06:13:21;;;;;;;10.70;7.90;;;21.30;99.90;;;;;;5083815;28;20519;-56
2021/06/04 06:15:47;;;;;;;13.83;8.60;;;21.40;99.90;;;;;;5079261;28;20417;-58
2021/06/04 06:18:13;;;;;;;9.57;7.40;;;21.40;99.90;;;;;;5082333;28;20474;-56
2021/06/04 06:20:43;;;;;;;12.35;7.45;;;21.50;99.90;;;;;;5080857;28;20464;-56
2021/06/04 06:23:09;;;;;;;10.35;7.75;;;21.80;99.90;;;;;;5076232;28;20445;-59
2021/06/04 06:25:39;;;;;;;12.05;7.53;;;21.80;99.90;;;;;;5074565;28;20395;-54
2021/06/04 06:28:08;;;;;;;11.13;7.32;;;21.90;99.90;;;;;;5084308;28;20418;-53
2021/06/04 06:30:36;;;;;;;10.02;6.72;;;20.90;99.90;;;;;;5076988;28;20390;-54
2021/06/04 06:33:03;;;;;;;11.55;7.63;;;22.70;99.90;;;;;;5078854;28;20387;-55
2021/06/04 06:35:44;;;;;;;10.60;7.27;;;22.70;99.90;;;;;;5063433;28;20463;-66
2021/06/04 06:38:10;;;;;;;11.45;8.15;;;22.70;99.90;;;;;;5071243;28;20416;-55
2021/06/04 06:40:38;;;;;;;12.18;7.10;;;22.80;99.90;;;;;;5076943;28;20391;-54
2021/06/04 06:43:04;;;;;;;9.68;7.30;;;22.90;99.90;;;;;;5075972;28;20386;-54
2021/06/04 06:45:30;;;;;;;10.32;7.88;;;22.70;99.90;;;;;;5081320;28;20490;-57
2021/06/04 06:47:56;;;;;;;11.63;8.40;;;22.70;99.90;;;;;;5061135;28;20518;-54
2021/06/04 06:50:24;;;;;;;9.30;7.13;;;22.80;99.90;;;;;;5080493;28;20392;-56
2021/06/04 06:52:49;;;;;;;13.18;8.60;;;22.50;99.90;;;;;;5082098;28;20403;-54
2021/06/04 06:55:16;;;;;;;12.90;8.30;;;22.30;99.90;;;;;;5079714;28;20409;-55
2021/06/04 06:57:41;;;;;;;11.23;8.40;;;22.30;99.90;;;;;;5079947;28;20462;-55
2021/06/04 07:00:19;;;;;;;11.70;8.30;;;22.30;99.90;;;;;;5083247;28;20516;-54
2021/06/04 07:02:45;;;;;;;10.18;8.15;;;22.10;99.90;;;;;;5059977;28;20883;-58
2021/06/04 07:05:12;;;;;;;11.70;8.18;;;22.10;99.90;;;;;;5078608;28;20393;-59
2021/06/04 07:07:39;;;;;;;10.02;7.18;;;22.10;99.90;;;;;;5080355;28;20384;-54
2021/06/04 07:10:07;;;;;;;10.93;8.02;;;22.10;99.90;;;;;;5079060;28;20489;-55
2021/06/04 07:12:33;;;;;;;14.68;7.70;;;22.20;99.90;;;;;;5075724;28;20393;-55
2021/06/04 07:14:59;;;;;;;11.70;8.70;;;22.30;99.90;;;;;;5079326;28;20745;-55
2021/06/04 07:17:26;;;;;;;11.85;8.43;;;22.40;99.90;;;;;;5077418;28;20411;-61
2021/06/04 07:19:52;;;;;;;11.93;8.15;;;22.30;99.90;;;;;;5083709;28;20418;-57
2021/06/04 07:22:18;;;;;;;17.08;10.73;;;22.20;99.90;;;;;;5077804;28;20441;-54
2021/06/04 07:24:43;;;;;;;10.07;8.17;;;22.30;99.90;;;;;;5081382;28;20785;-54
2021/06/04 07:27:10;;;;;;;13.80;8.87;;;22.30;99.90;;;;;;5078824;28;20438;-54
2021/06/04 07:29:36;;;;;;;14.87;9.00;;;22.10;99.90;;;;;;5072327;28;20399;-54
2021/06/04 07:32:02;;;;;;;18.40;9.30;;;22.00;99.90;;;;;;5077598;28;20391;-56
2021/06/04 07:34:28;;;;;;;12.93;9.60;;;21.90;99.90;;;;;;5072974;28;20893;-68
2021/06/04 07:36:57;;;;;;;12.35;9.27;;;21.70;99.90;;;;;;5077916;28;20813;-56
2021/06/04 07:39:28;;;;;;;12.48;9.63;;;21.80;99.90;;;;;;5074444;28;20396;-56
2021/06/04 07:41:54;;;;;;;12.20;9.40;;;21.90;99.90;;;;;;5079194;28;20387;-55
2021/06/04 07:44:20;;;;;;;12.60;8.70;;;22.20;99.90;;;;;;5075703;28;20393;-55
2021/06/04 07:46:48;;;;;;;14.15;8.95;;;22.20;99.90;;;;;;5073533;28;20490;-60
2021/06/04 07:49:14;;;;;;;12.25;8.85;;;22.30;99.90;;;;;;5078921;28;20411;-52
2021/06/04 07:51:45;;;;;;;13.00;9.47;;;22.30;99.90;;;;;;5079388;28;20758;-53
2021/06/04 07:54:12;;;;;;;11.88;9.63;;;22.30;99.90;;;;;;5079014;28;20879;-56
2021/06/04 07:56:39;;;;;;;14.57;9.02;;;22.60;99.90;;;;;;5080596;28;20892;-55
2021/06/04 07:59:05;;;;;;;13.90;8.40;;;23.00;99.90;;;;;;5085338;28;20876;-55
2021/06/04 08:01:31;;;;;;;9.50;7.32;;;23.10;99.90;;;;;;5077285;28;20380;-66
2021/06/04 08:03:58;;;;;;;12.73;8.10;;;23.40;99.90;;;;;;5070303;28;20412;-54
2021/06/04 08:06:24;;;;;;;12.48;8.32;;;23.90;99.90;;;;;;5077135;28;20872;-55
2021/06/04 08:08:53;;;;;;;13.02;8.38;;;24.30;99.90;;;;;;5073819;28;21103;-61
2021/06/04 08:11:27;;;;;;;11.75;8.13;;;24.70;99.90;;;;;;5082823;28;20455;-55
2021/06/04 08:14:06;;;;;;;12.15;7.47;;;25.10;99.90;;;;;;5064001;28;20475;-57
2021/06/04 08:16:37;;;;;;;12.02;6.80;;;25.80;99.90;;;;;;5075358;28;20510;-66
2021/06/04 08:19:03;;;;;;;10.95;6.70;;;26.00;99.90;;;;;;5082227;28;20458;-56
2021/06/04 08:21:43;;;;;;;8.18;5.00;;;26.70;99.90;;;;;;5090234;28;20382;-66
2021/06/04 08:24:13;;;;;;;8.57;4.47;;;27.70;99.90;;;;;;5085259;28;20398;-56
2021/06/04 08:26:39;;;;;;;7.05;3.40;;;28.70;99.90;;;;;;5089517;28;20767;-58
2021/06/04 08:29:07;;;;;;;6.40;3.50;;;29.00;99.90;;;;;;5089457;28;20374;-57
2021/06/04 08:31:33;;;;;;;6.55;3.53;;;30.30;99.90;;;;;;5071737;28;20384;-66
2021/06/04 08:33:59;;;;;;;6.07;3.00;;;30.70;98.80;;;;;;5083828;28;20409;-62
2021/06/04 08:36:31;;;;;;;7.80;3.60;;;31.90;95.70;;;;;;5074450;28;20929;-56
2021/06/04 08:38:59;;;;;;;6.35;3.50;;;32.20;94.60;;;;;;5061906;28;20390;-66
2021/06/04 08:41:55;;;;;;;8.00;3.20;;;32.80;91.60;;;;;;5071855;28;20463;-57
2021/06/04 08:44:23;;;;;;;7.43;3.28;;;32.90;90.70;;;;;;5074677;28;20489;-61
2021/06/04 08:46:58;;;;;;;6.20;3.20;;;33.40;90.00;;;;;;5075043;28;20620;-56
2021/06/04 08:49:34;;;;;;;7.60;4.10;;;34.40;81.40;;;;;;5070137;28;20381;-57
2021/06/04 08:52:23;;;;;;;7.00;3.83;;;33.70;81.20;;;;;;5079903;28;20414;-57
2021/06/04 08:55:26;;;;;;;7.65;3.90;;;33.30;82.60;;;;;;5072866;28;20418;-57
2021/06/04 08:58:15;;;;;;;6.85;4.10;;;32.80;84.90;;;;;;5080224;28;20395;-56
2021/06/04 09:00:48;;;;;;;10.83;4.60;;;32.60;85.70;;;;;;5072035;28;20400;-56
2021/06/04 09:03:31;;;;;;;6.25;3.03;;;32.70;83.90;;;;;;5074894;28;20388;-58
2021/06/04 09:06:02;;;;;;;6.82;3.30;;;32.70;83.80;;;;;;5068642;28;20396;-57
2021/06/04 09:08:37;;;;;;;7.70;3.10;;;34.70;77.80;;;;;;5076554;28;20447;-73
2021/06/04 09:11:24;;;;;;;6.00;3.00;;;35.40;70.70;;;;;;5071017;28;20393;-57
2021/06/04 09:13:50;;;;;;;6.70;3.28;;;36.30;68.20;;;;;;5066069;28;20403;-57
2021/06/04 09:16:34;;;;;;;7.27;3.20;;;35.90;66.70;;;;;;5084417;28;20402;-57
2021/06/04 09:19:22;;;;;;;6.25;3.45;;;35.50;68.30;;;;;;5089729;28;20482;-56
2021/06/04 09:21:51;;;;;;;7.80;3.30;;;35.70;67.60;;;;;;5089290;28;20401;-57
2021/06/04 09:24:28;;;;;;;7.85;3.60;;;36.50;65.50;;;;;;5089319;28;20378;-57
2021/06/04 09:26:54;;;;;;;8.80;4.10;;;35.90;64.10;;;;;;5088484;28;20393;-57
2021/06/04 09:29:27;;;;;;;7.63;3.80;;;35.40;66.60;;;;;;5090028;28;20378;-57
2021/06/04 09:31:58;;;;;;;6.50;3.57;;;35.80;65.90;;;;;;5088957;28;20384;-57
2021/06/04 09:34:25;;;;;;;8.10;3.95;;;35.80;66.20;;;;;;5089415;28;20378;-57
2021/06/04 09:37:18;;;;;;;6.90;3.70;;;36.30;62.60;;;;;;5084431;28;20585;-57
2021/06/04 09:39:51;;;;;;;8.10;3.47;;;36.40;61.70;;;;;;5069837;28;20448;-60
2021/06/04 09:42:26;;;;;;;7.32;4.10;;;37.70;59.00;;;;;;5080858;28;20450;-58
2021/06/04 09:45:07;;;;;;;7.03;3.53;;;36.80;57.80;;;;;;5087323;28;21126;-57
2021/06/04 09:47:58;;;;;;;6.97;3.80;;;35.70;60.20;;;;;;5072896;28;20395;-64
2021/06/04 09:50:46;;;;;;;7.60;3.95;;;35.40;63.20;;;;;;5071868;28;20422;-57
2021/06/04 09:53:14;;;;;;;7.50;3.90;;;35.60;61.90;;;;;;5074279;28;20696;-63
2021/06/04 09:55:44;;;;;;;7.70;3.60;;;35.40;60.80;;;;;;5077802;28;20801;-53
2021/06/04 09:58:12;;;;;;;8.70;3.50;;;35.80;61.50;;;;;;5075376;28;20387;-53
2021/06/04 10:00:42;;;;;;;7.13;3.87;;;35.00;60.00;;;;;;5079439;28;20394;-55
2021/06/04 10:03:33;;;;;;;7.70;4.15;;;34.20;64.70;;;;;;5075575;28;20400;-53
2021/06/04 10:06:05;;;;;;;7.00;4.03;;;35.50;63.60;;;;;;5074687;28;20403;-53
2021/06/04 10:08:32;;;;;;;7.40;3.90;;;35.80;60.70;;;;;;5073989;28;20391;-60
2021/06/04 10:11:07;;;;;;;7.50;3.30;;;34.70;59.30;;;;;;5075083;28;20379;-53
2021/06/04 10:13:41;;;;;;;6.80;3.23;;;33.30;61.70;;;;;;5069796;28;20394;-60
2021/06/04 10:16:47;;;;;;;6.53;4.15;;;33.90;64.40;;;;;;5074902;28;20463;-53
2021/06/04 10:19:35;;;;;;;8.05;4.07;;;34.80;62.70;;;;;;5050949;28;20418;-53
2021/06/04 10:22:13;;;;;;;8.40;4.20;;;35.40;60.50;;;;;;5068326;28;20470;-53
2021/06/04 10:24:48;;;;;;;6.38;3.88;;;34.30;64.00;;;;;;5067962;28;20429;-53
2021/06/04 10:27:42;;;;;;;7.68;3.90;;;33.80;64.40;;;;;;5068659;28;20388;-53
2021/06/04 10:30:11;;;;;;;7.05;4.20;;;33.70;64.20;;;;;;5058952;28;20529;-54
2021/06/04 10:32:59;;;;;;;9.20;4.30;;;33.30;66.00;;;;;;5067847;28;20880;-53
2021/06/04 10:35:46;;;;;;;8.80;5.35;;;32.60;67.90;;;;;;5068420;28;20851;-53
2021/06/04 10:38:23;;;;;;;7.33;4.10;;;32.20;71.90;;;;;;5068433;28;20384;-53
2021/06/04 10:40:56;;;;;;;7.88;4.40;;;32.30;69.90;;;;;;5050176;28;20423;-53
2021/06/04 10:43:40;;;;;;;7.05;3.65;;;31.40;72.50;;;;;;5068550;28;20397;-53
2021/06/04 10:46:17;;;;;;;7.80;4.00;;;30.80;71.50;;;;;;5068464;28;20788;-53
2021/06/04 10:49:00;;;;;;;7.72;3.97;;;30.90;71.30;;;;;;5067610;28;20854;-54
2021/06/04 10:51:31;;;;;;;7.97;4.40;;;31.00;74.40;;;;;;5067862;28;20914;-53
2021/06/04 10:54:20;;;;;;;8.75;4.50;;;31.10;76.90;;;;;;5069270;28;20469;-53
2021/06/04 10:57:06;;;;;;;7.87;4.63;;;30.90;76.60;;;;;;5071064;28;20798;-53
2021/06/04 10:59:43;;;;;;;8.50;4.32;;;31.50;75.50;;;;;;5071349;28;20849;-54
2021/06/04 11:02:46;;;;;;;7.00;4.50;;;31.60;74.80;;;;;;5089698;28;20446;-53
2021/06/04 11:05:30;;;;;;;10.00;5.20;;;31.60;76.80;;;;;;5091998;28;20383;-52
2021/06/04 11:08:07;;;;;;;8.93;4.85;;;31.30;77.70;;;;;;5074450;28;20378;-53
2021/06/04 11:10:49;;;;;;;6.47;4.07;;;31.60;75.50;;;;;;5091604;28;20898;-60
2021/06/04 11:13:26;;;;;;;7.67;4.40;;;31.70;76.40;;;;;;5091544;28;20460;-57
2021/06/04 11:15:58;;;;;;;9.50;4.70;;;31.30;77.00;;;;;;5090980;28;20467;-54
2021/06/04 11:18:43;;;;;;;8.70;4.70;;;31.20;77.00;;;;;;5092117;28;20457;-55
2021/06/04 11:21:37;;;;;;;7.23;4.00;;;31.20;78.00;;;;;;5091694;28;20480;-54
2021/06/04 11:24:10;;;;;;;9.80;4.60;;;31.40;77.50;;;;;;5091922;28;20890;-54
2021/06/04 11:26:41;;;;;;;7.78;4.40;;;30.90;77.90;;;;;;5072654;28;20394;-54
2021/06/04 11:29:22;;;;;;;7.65;4.60;;;30.40;79.30;;;;;;5091763;28;20390;-52
2021/06/04 11:32:15;;;;;;;8.50;5.10;;;30.10;81.70;;;;;;5072779;28;20401;-54
2021/06/04 11:34:46;;;;;;;9.30;4.72;;;30.10;82.50;;;;;;5090782;28;20469;-52
2021/06/04 11:37:29;;;;;;;7.95;4.47;;;29.90;85.20;;;;;;5091429;28;20416;-53
2021/06/04 11:40:04;;;;;;;9.32;5.30;;;29.80;85.50;;;;;;5088045;28;20383;-52
2021/06/04 11:42:42;;;;;;;9.23;5.90;;;29.60;88.70;;;;;;5091436;28;20362;-52
2021/06/04 11:45:09;;;;;;;10.60;6.63;;;29.30;90.50;;;;;;5091426;28;20840;-53
2021/06/04 11:47:37;;;;;;;9.25;6.50;;;28.60;93.00;;;;;;5090414;28;20432;-60
2021/06/04 11:50:29;;;;;;;7.35;4.40;;;28.00;96.50;;;;;;5091360;28;20378;-58
2021/06/04 11:53:16;;;;;;;6.77;3.00;;;27.40;92.70;;;;;;5090493;28;20418;-54
2021/06/04 11:55:42;;;;;;;10.70;3.10;;;26.50;91.40;;;;;;5072336;28;20413;-53
2021/06/04 11:58:30;;;;;;;7.57;2.88;;;26.20;93.50;;;;;;5091057;28;20661;-54
2021/06/04 12:01:21;;;;;;;6.22;2.60;;;26.10;91.50;;;;;;5082497;28;21102;-53
2021/06/04 12:04:06;;;;;;;7.70;2.70;;;26.10;91.20;;;;;;5069627;28;20364;-57
2021/06/04 12:07:01;;;;;;;6.90;3.00;;;26.00;91.40;;;;;;5069630;28;20387;-57
2021/06/04 12:09:46;;;;;;;8.17;3.40;;;26.10;92.90;;;;;;5070540;28;20394;-54
2021/06/04 12:12:25;;;;;;;6.73;3.37;;;26.20;94.60;;;;;;5070617;28;20375;-55
2021/06/04 12:14:56;;;;;;;10.02;5.20;;;26.00;99.90;;;;;;5069601;28;20477;-53
2021/06/04 12:17:36;;;;;;;10.53;4.80;;;25.00;99.90;;;;;;5070414;28;20453;-54
2021/06/04 12:20:15;;;;;;;8.20;5.25;;;24.30;99.90;;;;;;5070479;28;20380;-53
2021/06/04 12:22:51;;;;;;;10.97;4.40;;;24.00;99.90;;;;;;5069628;28;20391;-52
2021/06/04 12:25:48;;;;;;;10.35;4.22;;;24.10;99.90;;;;;;5070227;28;20849;-53
2021/06/04 12:28:20;;;;;;;7.47;4.88;;;24.30;99.90;;;;;;5070282;28;20463;-53
2021/06/04 12:31:06;;;;;;;9.82;4.55;;;24.40;99.90;;;;;;5050599;28;20399;-52
2021/06/04 12:33:40;;;;;;;6.70;3.72;;;24.20;99.90;;;;;;5069898;28;20376;-52
2021/06/04 12:36:43;;;;;;;6.83;3.80;;;23.80;99.90;;;;;;5069352;28;20741;-52
2021/06/04 12:39:21;;;;;;;7.68;2.97;;;23.50;99.90;;;;;;5069678;28;20395;-52
2021/06/04 12:41:49;;;;;;;5.63;2.65;;;23.00;99.90;;;;;;5068898;28;20387;-52
2021/06/04 12:44:14;;;;;;;7.57;3.35;;;22.80;99.90;;;;;;5069617;28;20478;-52
2021/06/04 12:46:41;;;;;;;7.40;3.30;;;22.80;99.90;;;;;;5068819;28;20809;-53
2021/06/04 12:49:12;;;;;;;7.95;3.45;;;22.90;99.90;;;;;;5069565;28;20422;-52
2021/06/04 12:51:42;;;;;;;7.35;3.40;;;22.80;99.90;;;;;;5068528;28;20544;-55
2021/06/04 12:54:10;;;;;;;9.15;3.40;;;22.90;99.90;;;;;;5069414;28;20463;-52
2021/06/04 12:56:45;;;;;;;6.97;3.22;;;22.80;99.90;;;;;;5069346;28;20412;-60
2021/06/04 12:59:16;;;;;;;8.50;3.63;;;22.80;99.90;;;;;;5069523;28;20442;-54
2021/06/04 13:02:08;;;;;;;7.00;3.75;;;22.80;99.90;;;;;;5082982;28;20382;-52
2021/06/04 13:04:37;;;;;;;6.80;4.20;;;22.90;99.90;;;;;;5089557;28;20381;-59
2021/06/04 13:07:09;;;;;;;7.90;4.10;;;23.00;99.90;;;;;;5090121;28;20385;-52
2021/06/04 13:09:39;;;;;;;8.07;4.45;;;23.10;99.90;;;;;;5089419;28;20468;-59